sensor_id;sensor_type;location;lat;lon;timestamp;temperature;humidity
21331;DHT22;10824;51.632;4.950;2023-10-31T00:02:07;10.60;32.30
21331;DHT22;10824;51.632;4.950;2023-10-31T00:04:35;10.60;1.00
21331;DHT22;10824;51.632;4.950;2023-10-31T00:07:02;10.60;1.00
21331;DHT22;10824;51.632;4.950;2023-10-31T00:09:29;10.50;42.10
21331;DHT22;10824;51.632;4.950;2023-10-31T00:11:58;10.50;1.00
21331;DHT22;10824;51.632;4.950;2023-10-31T00:14:26;10.60;99.90
21331;DHT22;10824;51.632;4.950;2023-10-31T00:17:00;10.50;28.90
21331;DHT22;10824;51.632;4.950;2023-10-31T00:19:29;10.50;85.90
21331;DHT22;10824;51.632;4.950;2023-10-31T00:21:56;10.50;99.90
21331;DHT22;10824;51.632;4.950;2023-10-31T00:24:23;10.50;99.90
21331;DHT22;10824;51.632;4.950;2023-10-31T00:26:51;10.60;99.90
21331;DHT22;10824;51.632;4.950;2023-10-31T00:29:18;10.50;99.90
21331;DHT22;10824;51.632;4.950;2023-10-31T00:31:45;10.50;99.90
21331;DHT22;10824;51.632;4.950;2023-10-31T00:34:13;10.50;99.90
21331;DHT22;10824;51.632;4.950;2023-10-31T00:36:40;10.60;99.90
21331;DHT22;10824;51.632;4.950;2023-10-31T00:39:07;10.50;99.90
21331;DHT22;10824;51.632;4.950;2023-10-31T00:41:34;10.50;99.90
21331;DHT22;10824;51.632;4.950;2023-10-31T00:44:01;10.50;99.90
21331;DHT22;10824;51.632;4.950;2023-10-31T00:46:29;10.50;99.90
21331;DHT22;10824;51.632;4.950;2023-10-31T00:48:57;10.50;99.90
21331;DHT22;10824;51.632;4.950;2023-10-31T00:51:24;10.50;99.90
21331;DHT22;10824;51.632;4.950;2023-10-31T00:53:52;10.50;99.90
21331;DHT22;10824;51.632;4.950;2023-10-31T00:56:19;10.50;99.90
21331;DHT22;10824;51.632;4.950;2023-10-31T00:58:46;10.50;99.90
21331;DHT22;10824;51.632;4.950;2023-10-31T01:01:14;10.50;99.90
21331;DHT22;10824;51.632;4.950;2023-10-31T01:03:42;10.50;99.90
21331;DHT22;10824;51.632;4.950;2023-10-31T01:06:09;10.40;99.90
21331;DHT22;10824;51.632;4.950;2023-10-31T01:08:36;10.40;99.90
21331;DHT22;10824;51.632;4.950;2023-10-31T01:11:03;10.50;1.00
21331;DHT22;10824;51.632;4.950;2023-10-31T01:13:33;10.50;1.00
21331;DHT22;10824;51.632;4.950;2023-10-31T01:16:00;10.50;1.00
21331;DHT22;10824;51.632;4.950;2023-10-31T01:18:27;10.50;1.00
21331;DHT22;10824;51.632;4.950;2023-10-31T01:20:54;10.50;1.00
21331;DHT22;10824;51.632;4.950;2023-10-31T01:23:22;10.50;1.00
21331;DHT22;10824;51.632;4.950;2023-10-31T01:25:52;10.50;1.00
21331;DHT22;10824;51.632;4.950;2023-10-31T01:28:19;10.50;1.00
21331;DHT22;10824;51.632;4.950;2023-10-31T01:30:46;10.50;1.00
21331;DHT22;10824;51.632;4.950;2023-10-31T01:33:14;10.50;1.00
21331;DHT22;10824;51.632;4.950;2023-10-31T01:35:43;10.50;6.70
21331;DHT22;10824;51.632;4.950;2023-10-31T01:38:10;10.50;61.40
21331;DHT22;10824;51.632;4.950;2023-10-31T01:40:37;10.50;82.50
21331;DHT22;10824;51.632;4.950;2023-10-31T01:43:04;10.50;99.90
21331;DHT22;10824;51.632;4.950;2023-10-31T01:45:31;10.60;99.90
21331;DHT22;10824;51.632;4.950;2023-10-31T01:48:00;10.60;99.90
21331;DHT22;10824;51.632;4.950;2023-10-31T01:50:27;10.60;99.90
21331;DHT22;10824;51.632;4.950;2023-10-31T01:52:55;10.60;99.90
21331;DHT22;10824;51.632;4.950;2023-10-31T01:55:23;10.60;73.20
21331;DHT22;10824;51.632;4.950;2023-10-31T01:57:54;10.70;99.90
21331;DHT22;10824;51.632;4.950;2023-10-31T02:00:21;10.70;99.90
21331;DHT22;10824;51.632;4.950;2023-10-31T02:02:52;10.70;99.90
21331;DHT22;10824;51.632;4.950;2023-10-31T02:05:19;10.60;99.90
21331;DHT22;10824;51.632;4.950;2023-10-31T02:07:48;10.70;99.90
21331;DHT22;10824;51.632;4.950;2023-10-31T02:10:15;10.60;99.90
21331;DHT22;10824;51.632;4.950;2023-10-31T02:12:42;10.70;99.90
21331;DHT22;10824;51.632;4.950;2023-10-31T02:15:10;10.70;99.90
21331;DHT22;10824;51.632;4.950;2023-10-31T02:17:37;10.60;99.90
21331;DHT22;10824;51.632;4.950;2023-10-31T02:20:05;10.60;99.90
21331;DHT22;10824;51.632;4.950;2023-10-31T02:22:32;10.70;99.90
21331;DHT22;10824;51.632;4.950;2023-10-31T02:24:59;10.60;99.90
21331;DHT22;10824;51.632;4.950;2023-10-31T02:27:26;10.70;99.90
21331;DHT22;10824;51.632;4.950;2023-10-31T02:29:54;10.70;99.90
21331;DHT22;10824;51.632;4.950;2023-10-31T02:32:21;10.70;99.90
21331;DHT22;10824;51.632;4.950;2023-10-31T02:34:49;10.70;99.90
21331;DHT22;10824;51.632;4.950;2023-10-31T02:37:16;10.70;99.90
21331;DHT22;10824;51.632;4.950;2023-10-31T02:39:43;10.70;99.90
21331;DHT22;10824;51.632;4.950;2023-10-31T02:42:10;10.70;99.90
21331;DHT22;10824;51.632;4.950;2023-10-31T02:44:39;10.70;99.90
21331;DHT22;10824;51.632;4.950;2023-10-31T02:47:07;10.70;99.90
21331;DHT22;10824;51.632;4.950;2023-10-31T02:49:36;10.70;99.90
21331;DHT22;10824;51.632;4.950;2023-10-31T02:52:03;10.70;99.90
21331;DHT22;10824;51.632;4.950;2023-10-31T02:54:30;10.70;99.90
21331;DHT22;10824;51.632;4.950;2023-10-31T02:56:58;10.70;99.90
21331;DHT22;10824;51.632;4.950;2023-10-31T02:59:25;10.60;99.90
21331;DHT22;10824;51.632;4.950;2023-10-31T03:01:56;10.70;99.90
21331;DHT22;10824;51.632;4.950;2023-10-31T03:04:24;10.70;99.90
21331;DHT22;10824;51.632;4.950;2023-10-31T03:06:51;10.70;99.90
21331;DHT22;10824;51.632;4.950;2023-10-31T03:09:18;10.70;56.50
21331;DHT22;10824;51.632;4.950;2023-10-31T03:11:45;10.70;61.90
21331;DHT22;10824;51.632;4.950;2023-10-31T03:14:12;10.60;51.10
21331;DHT22;10824;51.632;4.950;2023-10-31T03:16:40;10.70;70.20
21331;DHT22;10824;51.632;4.950;2023-10-31T03:19:07;10.70;93.10
21331;DHT22;10824;51.632;4.950;2023-10-31T03:21:34;10.70;99.90
21331;DHT22;10824;51.632;4.950;2023-10-31T03:24:01;10.70;90.40
21331;DHT22;10824;51.632;4.950;2023-10-31T03:26:29;10.70;41.40
21331;DHT22;10824;51.632;4.950;2023-10-31T03:28:56;10.70;97.50
21331;DHT22;10824;51.632;4.950;2023-10-31T03:31:24;10.70;81.50
21331;DHT22;10824;51.632;4.950;2023-10-31T03:33:51;10.70;77.20
21331;DHT22;10824;51.632;4.950;2023-10-31T03:36:19;10.70;99.90
21331;DHT22;10824;51.632;4.950;2023-10-31T03:38:46;10.70;99.90
21331;DHT22;10824;51.632;4.950;2023-10-31T03:41:13;10.70;99.90
21331;DHT22;10824;51.632;4.950;2023-10-31T03:43:42;10.70;99.90
21331;DHT22;10824;51.632;4.950;2023-10-31T03:46:09;10.70;99.90
21331;DHT22;10824;51.632;4.950;2023-10-31T03:48:38;10.70;99.90
21331;DHT22;10824;51.632;4.950;2023-10-31T03:51:05;10.70;99.90
21331;DHT22;10824;51.632;4.950;2023-10-31T03:53:32;10.70;99.90
21331;DHT22;10824;51.632;4.950;2023-10-31T03:55:59;10.70;99.90
21331;DHT22;10824;51.632;4.950;2023-10-31T03:58:27;10.70;99.90
21331;DHT22;10824;51.632;4.950;2023-10-31T04:00:55;10.70;99.90
21331;DHT22;10824;51.632;4.950;2023-10-31T04:03:22;10.70;99.90
21331;DHT22;10824;51.632;4.950;2023-10-31T04:05:49;10.70;99.90
21331;DHT22;10824;51.632;4.950;2023-10-31T04:08:16;10.70;99.90
21331;DHT22;10824;51.632;4.950;2023-10-31T04:10:43;10.70;99.90
21331;DHT22;10824;51.632;4.950;2023-10-31T04:13:11;10.60;99.90
21331;DHT22;10824;51.632;4.950;2023-10-31T04:15:38;10.70;99.90
21331;DHT22;10824;51.632;4.950;2023-10-31T04:18:05;10.60;99.90
21331;DHT22;10824;51.632;4.950;2023-10-31T04:20:32;10.60;99.90
21331;DHT22;10824;51.632;4.950;2023-10-31T04:23:00;10.60;99.90
21331;DHT22;10824;51.632;4.950;2023-10-31T04:25:27;10.60;99.90
21331;DHT22;10824;51.632;4.950;2023-10-31T04:27:56;10.60;99.90
21331;DHT22;10824;51.632;4.950;2023-10-31T04:30:23;10.60;99.90
21331;DHT22;10824;51.632;4.950;2023-10-31T04:32:50;10.60;99.90
21331;DHT22;10824;51.632;4.950;2023-10-31T04:35:17;10.60;99.90
21331;DHT22;10824;51.632;4.950;2023-10-31T04:37:45;10.60;99.90
21331;DHT22;10824;51.632;4.950;2023-10-31T04:40:12;10.60;99.90
21331;DHT22;10824;51.632;4.950;2023-10-31T04:42:40;10.50;99.90
21331;DHT22;10824;51.632;4.950;2023-10-31T04:45:08;10.50;99.90
21331;DHT22;10824;51.632;4.950;2023-10-31T04:47:35;10.50;99.90
21331;DHT22;10824;51.632;4.950;2023-10-31T04:50:03;10.50;99.90
21331;DHT22;10824;51.632;4.950;2023-10-31T04:52:30;10.50;99.90
21331;DHT22;10824;51.632;4.950;2023-10-31T04:54:57;10.50;99.90
21331;DHT22;10824;51.632;4.950;2023-10-31T04:57:24;10.50;99.90
21331;DHT22;10824;51.632;4.950;2023-10-31T04:59:51;10.50;99.90
21331;DHT22;10824;51.632;4.950;2023-10-31T05:02:21;10.50;99.90
21331;DHT22;10824;51.632;4.950;2023-10-31T05:04:51;10.50;99.90
21331;DHT22;10824;51.632;4.950;2023-10-31T05:07:18;10.40;99.90
21331;DHT22;10824;51.632;4.950;2023-10-31T05:09:46;10.50;99.90
21331;DHT22;10824;51.632;4.950;2023-10-31T05:12:13;10.40;99.90
21331;DHT22;10824;51.632;4.950;2023-10-31T05:14:40;10.40;99.90
21331;DHT22;10824;51.632;4.950;2023-10-31T05:17:08;10.40;99.90
21331;DHT22;10824;51.632;4.950;2023-10-31T05:19:35;10.40;99.90
21331;DHT22;10824;51.632;4.950;2023-10-31T05:22:02;10.40;99.90
21331;DHT22;10824;51.632;4.950;2023-10-31T05:24:29;10.40;99.90
21331;DHT22;10824;51.632;4.950;2023-10-31T05:26:59;10.40;99.90
21331;DHT22;10824;51.632;4.950;2023-10-31T05:29:26;10.40;99.90
21331;DHT22;10824;51.632;4.950;2023-10-31T05:31:53;10.30;99.90
21331;DHT22;10824;51.632;4.950;2023-10-31T05:34:20;10.30;99.90
21331;DHT22;10824;51.632;4.950;2023-10-31T05:36:48;10.30;99.90
21331;DHT22;10824;51.632;4.950;2023-10-31T05:39:15;10.30;99.90
21331;DHT22;10824;51.632;4.950;2023-10-31T05:41:43;10.30;99.90
21331;DHT22;10824;51.632;4.950;2023-10-31T05:44:10;10.30;99.90
21331;DHT22;10824;51.632;4.950;2023-10-31T05:46:38;10.20;99.90
21331;DHT22;10824;51.632;4.950;2023-10-31T05:49:10;10.20;99.90
21331;DHT22;10824;51.632;4.950;2023-10-31T05:51:37;10.20;99.90
21331;DHT22;10824;51.632;4.950;2023-10-31T05:54:09;10.30;99.90
21331;DHT22;10824;51.632;4.950;2023-10-31T05:56:36;10.20;99.90
21331;DHT22;10824;51.632;4.950;2023-10-31T05:59:03;10.20;99.90
21331;DHT22;10824;51.632;4.950;2023-10-31T06:01:30;10.20;99.90
21331;DHT22;10824;51.632;4.950;2023-10-31T06:03:57;10.20;99.90
21331;DHT22;10824;51.632;4.950;2023-10-31T06:06:27;10.20;99.90
21331;DHT22;10824;51.632;4.950;2023-10-31T06:08:55;10.20;99.90
21331;DHT22;10824;51.632;4.950;2023-10-31T06:11:23;10.20;99.90
21331;DHT22;10824;51.632;4.950;2023-10-31T06:13:50;10.20;99.90
21331;DHT22;10824;51.632;4.950;2023-10-31T06:16:17;10.30;99.90
21331;DHT22;10824;51.632;4.950;2023-10-31T06:18:44;10.20;99.90
21331;DHT22;10824;51.632;4.950;2023-10-31T06:21:11;10.20;99.90
21331;DHT22;10824;51.632;4.950;2023-10-31T06:23:39;10.20;99.90
21331;DHT22;10824;51.632;4.950;2023-10-31T06:26:06;10.20;99.90
21331;DHT22;10824;51.632;4.950;2023-10-31T06:28:33;10.20;99.90
21331;DHT22;10824;51.632;4.950;2023-10-31T06:31:09;10.30;99.90
21331;DHT22;10824;51.632;4.950;2023-10-31T06:33:36;10.30;99.90
21331;DHT22;10824;51.632;4.950;2023-10-31T06:36:03;10.20;99.90
21331;DHT22;10824;51.632;4.950;2023-10-31T06:38:31;10.20;99.90
21331;DHT22;10824;51.632;4.950;2023-10-31T06:40:58;10.30;99.90
21331;DHT22;10824;51.632;4.950;2023-10-31T06:43:25;10.20;99.90
21331;DHT22;10824;51.632;4.950;2023-10-31T06:45:58;10.20;99.90
21331;DHT22;10824;51.632;4.950;2023-10-31T06:48:28;10.30;99.90
21331;DHT22;10824;51.632;4.950;2023-10-31T06:50:55;10.20;99.90
21331;DHT22;10824;51.632;4.950;2023-10-31T06:53:22;10.20;99.90
21331;DHT22;10824;51.632;4.950;2023-10-31T06:55:49;10.20;99.90
21331;DHT22;10824;51.632;4.950;2023-10-31T06:58:18;10.30;99.90
21331;DHT22;10824;51.632;4.950;2023-10-31T07:00:45;10.20;99.90
21331;DHT22;10824;51.632;4.950;2023-10-31T07:03:12;10.20;99.90
21331;DHT22;10824;51.632;4.950;2023-10-31T07:05:42;10.20;99.90
21331;DHT22;10824;51.632;4.950;2023-10-31T07:08:09;10.20;99.90
21331;DHT22;10824;51.632;4.950;2023-10-31T07:10:37;10.20;99.90
21331;DHT22;10824;51.632;4.950;2023-10-31T07:13:04;10.20;99.90
21331;DHT22;10824;51.632;4.950;2023-10-31T07:15:31;10.20;99.90
21331;DHT22;10824;51.632;4.950;2023-10-31T07:17:58;10.30;99.90
21331;DHT22;10824;51.632;4.950;2023-10-31T07:20:25;10.30;99.90
21331;DHT22;10824;51.632;4.950;2023-10-31T07:22:52;10.30;99.90
21331;DHT22;10824;51.632;4.950;2023-10-31T07:25:20;10.30;99.90
21331;DHT22;10824;51.632;4.950;2023-10-31T07:27:47;10.30;99.90
21331;DHT22;10824;51.632;4.950;2023-10-31T07:30:15;10.30;99.90
21331;DHT22;10824;51.632;4.950;2023-10-31T07:32:49;10.40;99.90
21331;DHT22;10824;51.632;4.950;2023-10-31T07:35:16;10.30;99.90
21331;DHT22;10824;51.632;4.950;2023-10-31T07:37:43;10.40;99.90
21331;DHT22;10824;51.632;4.950;2023-10-31T07:40:11;10.40;99.90
21331;DHT22;10824;51.632;4.950;2023-10-31T07:42:39;10.40;99.90
21331;DHT22;10824;51.632;4.950;2023-10-31T07:45:06;10.40;99.90
21331;DHT22;10824;51.632;4.950;2023-10-31T07:47:33;10.50;99.90
21331;DHT22;10824;51.632;4.950;2023-10-31T07:50:00;10.50;99.90
21331;DHT22;10824;51.632;4.950;2023-10-31T07:52:28;10.40;99.90
21331;DHT22;10824;51.632;4.950;2023-10-31T07:54:55;10.50;99.90
21331;DHT22;10824;51.632;4.950;2023-10-31T07:57:22;10.40;99.90
21331;DHT22;10824;51.632;4.950;2023-10-31T07:59:49;10.40;99.90
21331;DHT22;10824;51.632;4.950;2023-10-31T08:02:16;10.40;99.90
21331;DHT22;10824;51.632;4.950;2023-10-31T08:04:43;10.40;99.90
21331;DHT22;10824;51.632;4.950;2023-10-31T08:07:11;10.50;99.90
21331;DHT22;10824;51.632;4.950;2023-10-31T08:09:38;10.50;99.90
21331;DHT22;10824;51.632;4.950;2023-10-31T08:12:05;10.60;99.90
21331;DHT22;10824;51.632;4.950;2023-10-31T08:14:32;10.60;99.90
21331;DHT22;10824;51.632;4.950;2023-10-31T08:17:01;10.70;99.90
21331;DHT22;10824;51.632;4.950;2023-10-31T08:19:28;10.70;99.90
21331;DHT22;10824;51.632;4.950;2023-10-31T08:21:56;10.70;26.50
21331;DHT22;10824;51.632;4.950;2023-10-31T08:24:25;10.80;5.60
21331;DHT22;10824;51.632;4.950;2023-10-31T08:26:52;10.80;1.00
21331;DHT22;10824;51.632;4.950;2023-10-31T08:29:19;10.80;1.00
21331;DHT22;10824;51.632;4.950;2023-10-31T08:31:47;10.90;1.00
21331;DHT22;10824;51.632;4.950;2023-10-31T08:34:14;10.90;99.90
21331;DHT22;10824;51.632;4.950;2023-10-31T08:36:41;10.90;99.90
21331;DHT22;10824;51.632;4.950;2023-10-31T08:39:11;10.90;99.90
21331;DHT22;10824;51.632;4.950;2023-10-31T08:41:56;10.90;99.90
21331;DHT22;10824;51.632;4.950;2023-10-31T08:44:23;10.90;99.90
21331;DHT22;10824;51.632;4.950;2023-10-31T08:46:51;10.80;78.50
21331;DHT22;10824;51.632;4.950;2023-10-31T08:49:19;11.00;99.90
21331;DHT22;10824;51.632;4.950;2023-10-31T08:51:49;11.00;99.90
21331;DHT22;10824;51.632;4.950;2023-10-31T08:54:16;10.90;1.40
21331;DHT22;10824;51.632;4.950;2023-10-31T08:56:43;10.90;1.00
21331;DHT22;10824;51.632;4.950;2023-10-31T08:59:10;10.90;1.00
21331;DHT22;10824;51.632;4.950;2023-10-31T09:01:40;10.90;1.00
21331;DHT22;10824;51.632;4.950;2023-10-31T09:04:08;10.90;1.00
21331;DHT22;10824;51.632;4.950;2023-10-31T09:06:35;10.90;1.00
21331;DHT22;10824;51.632;4.950;2023-10-31T09:09:02;10.90;1.00
21331;DHT22;10824;51.632;4.950;2023-10-31T09:11:30;10.90;1.00
21331;DHT22;10824;51.632;4.950;2023-10-31T09:13:57;10.90;1.00
21331;DHT22;10824;51.632;4.950;2023-10-31T09:16:25;10.80;1.00
21331;DHT22;10824;51.632;4.950;2023-10-31T09:18:52;11.10;55.00
21331;DHT22;10824;51.632;4.950;2023-10-31T09:21:19;11.00;1.00
21331;DHT22;10824;51.632;4.950;2023-10-31T09:23:46;11.00;1.00
21331;DHT22;10824;51.632;4.950;2023-10-31T09:26:13;11.00;1.00
21331;DHT22;10824;51.632;4.950;2023-10-31T09:28:40;11.10;1.00
21331;DHT22;10824;51.632;4.950;2023-10-31T09:31:17;11.10;1.00
21331;DHT22;10824;51.632;4.950;2023-10-31T09:33:45;11.20;1.00
21331;DHT22;10824;51.632;4.950;2023-10-31T09:36:13;11.30;1.00
21331;DHT22;10824;51.632;4.950;2023-10-31T09:38:41;11.20;99.90
21331;DHT22;10824;51.632;4.950;2023-10-31T09:41:08;11.20;99.90
21331;DHT22;10824;51.632;4.950;2023-10-31T09:43:36;11.20;99.90
21331;DHT22;10824;51.632;4.950;2023-10-31T09:46:03;11.20;99.90
21331;DHT22;10824;51.632;4.950;2023-10-31T09:48:31;11.10;99.90
21331;DHT22;10824;51.632;4.950;2023-10-31T09:50:59;11.10;99.90
21331;DHT22;10824;51.632;4.950;2023-10-31T09:53:27;11.10;99.90
21331;DHT22;10824;51.632;4.950;2023-10-31T09:55:55;11.00;99.90
21331;DHT22;10824;51.632;4.950;2023-10-31T09:58:23;11.00;99.90
21331;DHT22;10824;51.632;4.950;2023-10-31T10:00:51;11.00;99.90
21331;DHT22;10824;51.632;4.950;2023-10-31T10:03:18;11.10;99.90
21331;DHT22;10824;51.632;4.950;2023-10-31T10:05:46;11.10;99.90
21331;DHT22;10824;51.632;4.950;2023-10-31T10:08:14;11.20;99.90
21331;DHT22;10824;51.632;4.950;2023-10-31T10:10:42;11.20;99.90
21331;DHT22;10824;51.632;4.950;2023-10-31T10:13:09;11.20;99.90
21331;DHT22;10824;51.632;4.950;2023-10-31T10:15:48;11.30;99.90
21331;DHT22;10824;51.632;4.950;2023-10-31T10:18:36;11.30;99.90
21331;DHT22;10824;51.632;4.950;2023-10-31T10:21:08;11.30;99.90
21331;DHT22;10824;51.632;4.950;2023-10-31T10:23:35;11.30;67.60
21331;DHT22;10824;51.632;4.950;2023-10-31T10:26:03;11.40;60.30
21331;DHT22;10824;51.632;4.950;2023-10-31T10:28:30;11.40;48.70
21331;DHT22;10824;51.632;4.950;2023-10-31T10:30:58;11.60;1.00
21331;DHT22;10824;51.632;4.950;2023-10-31T10:33:25;11.60;1.00
21331;DHT22;10824;51.632;4.950;2023-10-31T10:35:54;11.70;1.00
21331;DHT22;10824;51.632;4.950;2023-10-31T10:38:23;11.70;1.00
21331;DHT22;10824;51.632;4.950;2023-10-31T10:40:53;11.80;1.00
21331;DHT22;10824;51.632;4.950;2023-10-31T10:43:26;11.80;99.90
21331;DHT22;10824;51.632;4.950;2023-10-31T10:45:56;11.90;99.90
21331;DHT22;10824;51.632;4.950;2023-10-31T10:48:28;11.90;99.90
21331;DHT22;10824;51.632;4.950;2023-10-31T10:51:15;11.80;40.00
21331;DHT22;10824;51.632;4.950;2023-10-31T10:53:55;11.80;99.90
21331;DHT22;10824;51.632;4.950;2023-10-31T10:56:46;11.80;99.90
21331;DHT22;10824;51.632;4.950;2023-10-31T10:59:21;11.80;99.90
21331;DHT22;10824;51.632;4.950;2023-10-31T11:01:49;11.80;99.90
21331;DHT22;10824;51.632;4.950;2023-10-31T11:04:17;11.90;99.90
21331;DHT22;10824;51.632;4.950;2023-10-31T11:06:45;11.90;99.90
21331;DHT22;10824;51.632;4.950;2023-10-31T11:09:14;11.80;99.90
21331;DHT22;10824;51.632;4.950;2023-10-31T11:11:41;11.90;99.90
21331;DHT22;10824;51.632;4.950;2023-10-31T11:14:16;11.90;1.00
21331;DHT22;10824;51.632;4.950;2023-10-31T11:16:48;11.80;1.00
21331;DHT22;10824;51.632;4.950;2023-10-31T11:19:18;11.80;1.00
21331;DHT22;10824;51.632;4.950;2023-10-31T11:21:58;11.80;1.00
21331;DHT22;10824;51.632;4.950;2023-10-31T11:24:37;11.80;1.00
21331;DHT22;10824;51.632;4.950;2023-10-31T11:27:06;11.80;1.00
21331;DHT22;10824;51.632;4.950;2023-10-31T11:29:35;11.80;99.90
21331;DHT22;10824;51.632;4.950;2023-10-31T11:32:03;11.90;99.90
21331;DHT22;10824;51.632;4.950;2023-10-31T11:34:30;11.90;99.90
21331;DHT22;10824;51.632;4.950;2023-10-31T11:37:19;11.80;99.90
21331;DHT22;10824;51.632;4.950;2023-10-31T11:42:52;11.80;99.90
21331;DHT22;10824;51.632;4.950;2023-10-31T11:48:09;11.90;99.90
21331;DHT22;10824;51.632;4.950;2023-10-31T11:50:38;12.00;99.90
21331;DHT22;10824;51.632;4.950;2023-10-31T11:53:14;12.00;1.00
21331;DHT22;10824;51.632;4.950;2023-10-31T11:55:45;12.10;1.00
21331;DHT22;10824;51.632;4.950;2023-10-31T12:00:48;12.20;1.00
21331;DHT22;10824;51.632;4.950;2023-10-31T12:03:17;12.20;1.00
21331;DHT22;10824;51.632;4.950;2023-10-31T12:05:55;12.30;1.00
21331;DHT22;10824;51.632;4.950;2023-10-31T12:08:26;12.40;1.00
21331;DHT22;10824;51.632;4.950;2023-10-31T12:11:12;12.50;99.90
21331;DHT22;10824;51.632;4.950;2023-10-31T12:13:42;12.60;99.90
21331;DHT22;10824;51.632;4.950;2023-10-31T12:16:10;12.60;99.90
21331;DHT22;10824;51.632;4.950;2023-10-31T12:18:38;12.50;99.90
21331;DHT22;10824;51.632;4.950;2023-10-31T12:21:08;12.50;99.90
21331;DHT22;10824;51.632;4.950;2023-10-31T12:23:37;12.40;99.90
21331;DHT22;10824;51.632;4.950;2023-10-31T12:26:05;12.30;99.90
21331;DHT22;10824;51.632;4.950;2023-10-31T12:28:32;12.30;99.90
21331;DHT22;10824;51.632;4.950;2023-10-31T12:30:59;12.30;99.90
21331;DHT22;10824;51.632;4.950;2023-10-31T12:33:29;12.30;1.00
21331;DHT22;10824;51.632;4.950;2023-10-31T12:35:58;12.30;99.90
21331;DHT22;10824;51.632;4.950;2023-10-31T12:38:25;12.20;99.90
21331;DHT22;10824;51.632;4.950;2023-10-31T12:40:54;12.10;77.90
21331;DHT22;10824;51.632;4.950;2023-10-31T12:43:23;12.10;99.90
21331;DHT22;10824;51.632;4.950;2023-10-31T12:45:52;12.10;99.90
21331;DHT22;10824;51.632;4.950;2023-10-31T12:48:24;12.10;99.90
21331;DHT22;10824;51.632;4.950;2023-10-31T12:51:06;12.10;99.90
21331;DHT22;10824;51.632;4.950;2023-10-31T12:53:36;12.10;99.90
21331;DHT22;10824;51.632;4.950;2023-10-31T12:56:04;12.20;99.90
21331;DHT22;10824;51.632;4.950;2023-10-31T12:58:31;12.10;63.20
21331;DHT22;10824;51.632;4.950;2023-10-31T13:00:59;12.00;1.00
21331;DHT22;10824;51.632;4.950;2023-10-31T13:03:26;11.90;1.00
21331;DHT22;10824;51.632;4.950;2023-10-31T13:05:53;12.00;68.40
21331;DHT22;10824;51.632;4.950;2023-10-31T13:08:22;12.00;98.20
21331;DHT22;10824;51.632;4.950;2023-10-31T13:10:49;12.10;68.60
21331;DHT22;10824;51.632;4.950;2023-10-31T13:13:16;12.10;1.00
21331;DHT22;10824;51.632;4.950;2023-10-31T13:15:45;12.10;1.00
21331;DHT22;10824;51.632;4.950;2023-10-31T13:18:13;12.20;1.00
21331;DHT22;10824;51.632;4.950;2023-10-31T13:20:41;12.30;1.00
21331;DHT22;10824;51.632;4.950;2023-10-31T13:23:08;12.30;1.00
21331;DHT22;10824;51.632;4.950;2023-10-31T13:25:36;12.30;1.00
21331;DHT22;10824;51.632;4.950;2023-10-31T13:28:03;12.30;1.00
21331;DHT22;10824;51.632;4.950;2023-10-31T13:30:33;12.20;99.90
21331;DHT22;10824;51.632;4.950;2023-10-31T13:33:00;12.20;99.90
21331;DHT22;10824;51.632;4.950;2023-10-31T13:35:27;12.20;99.90
21331;DHT22;10824;51.632;4.950;2023-10-31T13:37:55;12.20;99.90
21331;DHT22;10824;51.632;4.950;2023-10-31T13:40:22;12.20;1.00
21331;DHT22;10824;51.632;4.950;2023-10-31T13:42:50;12.20;9.10
21331;DHT22;10824;51.632;4.950;2023-10-31T13:45:18;12.10;1.00
21331;DHT22;10824;51.632;4.950;2023-10-31T13:47:45;12.10;1.00
21331;DHT22;10824;51.632;4.950;2023-10-31T13:50:12;12.10;1.00
21331;DHT22;10824;51.632;4.950;2023-10-31T13:52:39;12.20;1.00
21331;DHT22;10824;51.632;4.950;2023-10-31T13:55:07;12.00;1.00
21331;DHT22;10824;51.632;4.950;2023-10-31T13:57:34;12.10;99.90
21331;DHT22;10824;51.632;4.950;2023-10-31T14:00:01;12.00;99.90
21331;DHT22;10824;51.632;4.950;2023-10-31T14:02:39;12.00;99.90
21331;DHT22;10824;51.632;4.950;2023-10-31T14:05:07;12.00;1.00
21331;DHT22;10824;51.632;4.950;2023-10-31T14:07:34;11.90;1.00
21331;DHT22;10824;51.632;4.950;2023-10-31T14:10:03;11.80;1.00
21331;DHT22;10824;51.632;4.950;2023-10-31T14:12:30;11.80;93.70
21331;DHT22;10824;51.632;4.950;2023-10-31T14:14:57;11.70;99.90
21331;DHT22;10824;51.632;4.950;2023-10-31T14:17:24;11.70;99.90
21331;DHT22;10824;51.632;4.950;2023-10-31T14:19:51;11.70;99.90
21331;DHT22;10824;51.632;4.950;2023-10-31T14:22:18;11.60;1.00
21331;DHT22;10824;51.632;4.950;2023-10-31T14:24:45;11.60;1.00
21331;DHT22;10824;51.632;4.950;2023-10-31T14:27:13;11.50;43.80
21331;DHT22;10824;51.632;4.950;2023-10-31T14:29:41;11.50;99.90
21331;DHT22;10824;51.632;4.950;2023-10-31T14:32:09;11.50;99.90
21331;DHT22;10824;51.632;4.950;2023-10-31T14:34:37;11.50;1.00
21331;DHT22;10824;51.632;4.950;2023-10-31T14:37:04;11.40;1.00
21331;DHT22;10824;51.632;4.950;2023-10-31T14:39:32;11.50;1.00
21331;DHT22;10824;51.632;4.950;2023-10-31T14:42:00;11.40;16.40
21331;DHT22;10824;51.632;4.950;2023-10-31T14:44:27;11.30;99.90
21331;DHT22;10824;51.632;4.950;2023-10-31T14:46:57;11.40;99.90
21331;DHT22;10824;51.632;4.950;2023-10-31T14:49:24;11.40;99.90
21331;DHT22;10824;51.632;4.950;2023-10-31T14:51:51;11.40;1.00
21331;DHT22;10824;51.632;4.950;2023-10-31T14:54:18;11.40;1.00
21331;DHT22;10824;51.632;4.950;2023-10-31T14:56:49;11.40;1.00
21331;DHT22;10824;51.632;4.950;2023-10-31T14:59:16;11.40;1.00
21331;DHT22;10824;51.632;4.950;2023-10-31T15:01:43;11.50;1.00
21331;DHT22;10824;51.632;4.950;2023-10-31T15:04:10;11.50;1.00
21331;DHT22;10824;51.632;4.950;2023-10-31T15:06:38;11.40;1.00
21331;DHT22;10824;51.632;4.950;2023-10-31T15:09:05;11.50;45.40
21331;DHT22;10824;51.632;4.950;2023-10-31T15:11:33;11.50;99.90
21331;DHT22;10824;51.632;4.950;2023-10-31T15:14:01;11.50;99.90
21331;DHT22;10824;51.632;4.950;2023-10-31T15:16:29;11.50;99.90
21331;DHT22;10824;51.632;4.950;2023-10-31T15:18:59;11.60;99.90
21331;DHT22;10824;51.632;4.950;2023-10-31T15:21:26;11.60;99.90
21331;DHT22;10824;51.632;4.950;2023-10-31T15:23:53;11.50;77.00
21331;DHT22;10824;51.632;4.950;2023-10-31T15:26:20;11.50;99.90
21331;DHT22;10824;51.632;4.950;2023-10-31T15:28:52;11.50;99.90
21331;DHT22;10824;51.632;4.950;2023-10-31T15:31:19;11.50;99.90
21331;DHT22;10824;51.632;4.950;2023-10-31T15:33:46;11.50;99.90
21331;DHT22;10824;51.632;4.950;2023-10-31T15:36:14;11.50;99.90
21331;DHT22;10824;51.632;4.950;2023-10-31T15:38:41;11.50;56.20
21331;DHT22;10824;51.632;4.950;2023-10-31T15:41:08;11.50;99.90
21331;DHT22;10824;51.632;4.950;2023-10-31T15:43:44;11.40;99.90
21331;DHT22;10824;51.632;4.950;2023-10-31T15:46:11;11.40;77.70
21331;DHT22;10824;51.632;4.950;2023-10-31T15:48:38;11.40;99.90
21331;DHT22;10824;51.632;4.950;2023-10-31T15:51:05;11.30;99.90